createdAt,value
2023-02-23T00:06:37.683Z,18.50
2023-02-23T00:16:45.686Z,14.60
2023-02-23T00:26:53.089Z,15.10
2023-02-23T00:37:00.123Z,16.40
2023-02-23T00:57:14.036Z,15.50
2023-02-23T01:07:21.209Z,13.10
2023-02-23T01:17:30.777Z,11.80
2023-02-23T01:37:44.512Z,17.10
2023-02-23T01:47:51.992Z,18.20
2023-02-23T01:57:57.074Z,15.50
2023-02-23T02:08:06.651Z,11.50
2023-02-23T02:28:31.866Z,15.40
2023-02-23T02:38:41.035Z,16.00
2023-02-23T02:48:47.848Z,17.70
2023-02-23T02:58:54.959Z,17.00
2023-02-23T03:09:18.454Z,16.90
2023-02-23T03:19:45.123Z,16.70
2023-02-23T03:30:08.458Z,18.90
2023-02-23T03:40:37.938Z,19.40
2023-02-23T03:51:08.201Z,18.00
2023-02-23T04:01:35.033Z,16.00
2023-02-23T04:12:01.241Z,17.00
2023-02-23T04:22:08.531Z,15.90
2023-02-23T04:32:13.859Z,15.60
2023-02-23T04:42:21.704Z,18.50
2023-02-23T04:52:28.734Z,22.50
2023-02-23T05:02:36.177Z,21.20
2023-02-23T05:12:43.736Z,18.20
2023-02-23T05:22:51.122Z,16.70
2023-02-23T05:32:58.338Z,16.80
2023-02-23T05:43:05.469Z,20.90
2023-02-23T05:53:12.919Z,18.40
2023-02-23T06:03:20.016Z,26.40
2023-02-23T06:13:29.003Z,21.70
2023-02-23T06:23:36.401Z,19.40
2023-02-23T06:33:43.588Z,17.90
2023-02-23T06:43:50.955Z,20.20
2023-02-23T06:53:58.914Z,28.70
2023-02-23T07:04:06.168Z,14.90
2023-02-23T07:14:15.309Z,14.80
2023-02-23T07:24:28.534Z,31.70
2023-02-23T07:34:37.395Z,20.80
2023-02-23T07:44:43.229Z,22.00
2023-02-23T07:54:49.340Z,22.70
2023-02-23T08:04:56.045Z,23.90
2023-02-23T08:15:03.449Z,21.20
2023-02-23T08:25:12.650Z,19.30
2023-02-23T08:35:19.043Z,21.60
2023-02-23T08:45:26.928Z,22.70
2023-02-23T08:55:34.525Z,22.30
2023-02-23T09:05:43.967Z,20.00
2023-02-23T09:25:56.971Z,18.50
2023-02-23T09:36:07.899Z,17.00
2023-02-23T09:46:12.558Z,15.80
2023-02-23T09:56:22.558Z,13.30
2023-02-23T10:06:30.447Z,12.90
2023-02-23T10:16:38.180Z,16.90
2023-02-23T10:26:46.981Z,17.00
2023-02-23T10:36:58.814Z,14.90
2023-02-23T10:47:10.712Z,15.40
2023-02-23T10:57:21.040Z,15.80
2023-02-23T11:07:29.809Z,15.50
2023-02-23T11:17:37.996Z,15.20
2023-02-23T11:27:47.719Z,15.00
2023-02-23T11:48:06.828Z,15.90
2023-02-23T11:58:19.478Z,15.90
2023-02-23T12:08:27.801Z,16.20
2023-02-23T12:18:38.425Z,16.40
2023-02-23T12:28:48.218Z,15.60
2023-02-23T12:38:57.536Z,15.70
2023-02-23T12:49:02.568Z,16.70
2023-02-23T12:59:41.009Z,14.90
2023-02-23T13:09:47.102Z,15.80
2023-02-23T13:19:59.011Z,15.20
2023-02-23T13:30:05.674Z,14.30
2023-02-23T13:40:20.956Z,14.90
2023-02-23T13:50:31.140Z,14.60
2023-02-23T14:00:38.384Z,15.00
2023-02-23T14:10:47.024Z,17.70
2023-02-23T14:20:57.983Z,17.30
2023-02-23T14:31:03.682Z,14.40
2023-02-23T14:41:12.821Z,14.10
2023-02-23T14:51:26.082Z,15.60
2023-02-23T15:01:39.667Z,16.80
2023-02-23T15:11:50.049Z,18.50
2023-02-23T15:22:00.867Z,18.60
2023-02-23T15:32:18.218Z,18.30
2023-02-23T15:42:24.661Z,20.70
2023-02-23T15:52:31.885Z,24.00
2023-02-23T16:02:41.225Z,26.30
2023-02-23T16:12:51.784Z,25.60
2023-02-23T16:22:59.804Z,31.50
2023-02-23T16:33:06.453Z,34.90
2023-02-23T16:43:12.543Z,34.40
2023-02-23T16:53:19.795Z,36.70
2023-02-23T17:03:28.827Z,38.80
2023-02-23T17:13:36.660Z,43.90
2023-02-23T17:23:43.801Z,38.70
2023-02-23T17:33:51.284Z,32.50
2023-02-23T17:43:58.769Z,37.30
2023-02-23T17:54:04.860Z,44.80
2023-02-23T18:04:11.865Z,46.10
2023-02-23T18:14:18.328Z,57.40
2023-02-23T18:24:26.018Z,44.70
2023-02-23T18:34:30.656Z,51.00
2023-02-23T18:44:38.151Z,52.60
2023-02-23T18:54:45.871Z,63.90
2023-02-23T19:04:53.235Z,69.10
2023-02-23T19:15:00.913Z,54.20
2023-02-23T19:25:10.154Z,51.80
2023-02-23T19:35:17.818Z,54.20
2023-02-23T19:45:26.147Z,63.60
2023-02-23T19:55:34.126Z,61.00
2023-02-23T20:05:42.076Z,50.00
2023-02-23T20:15:49.666Z,46.40
2023-02-23T20:25:57.379Z,46.90
2023-02-23T20:36:04.665Z,50.30
2023-02-23T20:46:13.729Z,60.40
2023-02-23T20:56:23.736Z,59.70
2023-02-23T21:06:32.779Z,58.80
2023-02-23T21:26:48.092Z,39.50
2023-02-23T21:36:54.756Z,34.00
2023-02-23T21:47:05.126Z,38.60
2023-02-23T21:57:12.231Z,39.50
2023-02-23T22:17:30.105Z,31.60
2023-02-23T22:27:37.653Z,32.50
2023-02-23T22:47:51.004Z,36.30
2023-02-23T22:58:02.180Z,33.60
2023-02-23T23:08:09.298Z,25.30
2023-02-23T23:18:15.447Z,26.00
2023-02-23T23:28:24.477Z,24.90
2023-02-23T23:38:31.085Z,24.10
2023-02-23T23:48:38.761Z,25.80
2023-02-23T23:58:46.799Z,26.40
